Time;durP1;ratioP1;P1;durP2;ratioP2;P2;SDS_P1;SDS_P2;PMS_P1;PMS_P2;Temp;Humidity;BMP_temperature;BMP_pressure;BME280_temperature;BME280_humidity;BME280_pressure;Samples;Min_cycle;Max_cycle;Signal;HPM_P1;HPM_P2
2024/04/02 00:01:08;;;;;;;7.27;1.90;;;10.70;99.90;;;;;;7283011;19;20193;-77
2024/04/02 00:03:35;;;;;;;7.37;1.80;;;10.80;99.90;;;;;;7284424;19;20185;-78
2024/04/02 00:06:01;;;;;;;5.47;1.67;;;10.70;99.90;;;;;;7305976;19;20193;-78
2024/04/02 00:08:31;;;;;;;7.17;2.00;;;10.70;99.90;;;;;;7284170;19;20596;-78
2024/04/02 00:11:05;;;;;;;6.20;1.40;;;10.60;99.90;;;;;;7284263;19;20193;-78
2024/04/02 00:13:31;;;;;;;4.30;1.57;;;10.60;99.90;;;;;;7283772;19;20187;-78
2024/04/02 00:15:58;;;;;;;6.97;1.47;;;10.70;99.90;;;;;;7285805;19;20308;-78
2024/04/02 00:18:24;;;;;;;6.60;1.47;;;10.70;99.90;;;;;;7282124;19;20227;-78
2024/04/02 00:20:50;;;;;;;5.70;1.67;;;10.70;99.90;;;;;;7283396;19;20196;-78
2024/04/02 00:23:16;;;;;;;5.63;1.50;;;10.60;99.90;;;;;;7283779;19;20181;-78
2024/04/02 00:25:46;;;;;;;5.77;1.70;;;10.50;99.90;;;;;;7283994;19;20542;-78
2024/04/02 00:28:12;;;;;;;5.97;1.70;;;10.50;99.90;;;;;;7282762;19;20218;-78
2024/04/02 00:30:39;;;;;;;6.47;1.50;;;10.50;99.90;;;;;;7284374;19;20660;-78
2024/04/02 00:33:05;;;;;;;6.43;1.90;;;10.50;99.90;;;;;;7285512;19;20209;-78
2024/04/02 00:35:31;;;;;;;4.80;1.83;;;10.50;99.90;;;;;;7304730;19;20220;-78
2024/04/02 00:37:57;;;;;;;6.20;1.60;;;10.50;99.90;;;;;;7281249;19;20192;-78
2024/04/02 00:40:23;;;;;;;6.83;1.63;;;10.50;99.90;;;;;;7284094;19;20192;-78
2024/04/02 00:42:49;;;;;;;6.63;1.57;;;10.50;99.90;;;;;;7282361;19;20205;-77
2024/04/02 00:45:15;;;;;;;5.63;1.50;;;10.50;99.90;;;;;;7282214;19;20192;-77
2024/04/02 00:47:42;;;;;;;5.83;1.60;;;10.50;99.90;;;;;;7282871;19;20263;-78
2024/04/02 00:50:10;;;;;;;4.20;1.57;;;10.50;99.90;;;;;;7284073;19;20185;-78
2024/04/02 00:52:36;;;;;;;6.03;1.60;;;10.60;99.90;;;;;;7283471;19;20189;-78
2024/04/02 00:55:02;;;;;;;5.60;1.40;;;10.60;99.90;;;;;;7306035;19;20198;-78
2024/04/02 00:57:28;;;;;;;5.53;1.53;;;10.80;99.90;;;;;;7282435;19;20184;-78
2024/04/02 00:59:55;;;;;;;6.03;1.40;;;10.70;99.90;;;;;;7284216;19;20225;-79
2024/04/02 01:02:21;;;;;;;7.60;1.60;;;10.90;99.90;;;;;;7281821;19;20670;-78
2024/04/02 01:04:47;;;;;;;7.80;1.73;;;11.00;99.90;;;;;;7281234;19;20188;-78
2024/04/02 01:07:18;;;;;;;6.47;1.50;;;11.00;99.90;;;;;;7281607;19;20668;-79
2024/04/02 01:09:44;;;;;;;5.57;1.50;;;10.90;99.90;;;;;;7282522;19;20192;-78
2024/04/02 01:12:10;;;;;;;4.87;1.37;;;10.90;99.90;;;;;;7282370;19;20187;-78
2024/04/02 01:14:40;;;;;;;3.80;1.53;;;10.80;99.90;;;;;;7279603;19;20185;-79
2024/04/02 01:17:05;;;;;;;5.20;1.50;;;10.80;99.90;;;;;;7281211;19;20194;-79
2024/04/02 01:19:31;;;;;;;7.07;1.50;;;10.60;99.90;;;;;;7304923;19;20185;-79
2024/04/02 01:21:58;;;;;;;4.27;1.40;;;10.70;99.90;;;;;;7281245;19;20252;-78
2024/04/02 01:24:24;;;;;;;4.87;1.27;;;10.60;99.90;;;;;;7279841;19;20568;-78
2024/04/02 01:26:50;;;;;;;6.97;1.50;;;10.60;99.90;;;;;;7281981;19;20206;-78
2024/04/02 01:29:15;;;;;;;8.60;1.80;;;10.50;99.90;;;;;;7281689;19;20190;-78
2024/04/02 01:31:41;;;;;;;7.03;1.57;;;10.50;99.90;;;;;;7281732;19;20189;-78
2024/04/02 01:34:07;;;;;;;6.83;1.40;;;10.40;99.90;;;;;;7280066;19;20195;-78
2024/04/02 01:36:33;;;;;;;7.70;1.70;;;10.40;99.90;;;;;;7291615;19;20200;-78
2024/04/02 01:38:59;;;;;;;6.70;1.53;;;10.50;99.90;;;;;;7297854;19;20193;-79
2024/04/02 01:41:24;;;;;;;7.00;2.03;;;10.50;99.90;;;;;;7280475;19;20195;-78
2024/04/02 01:43:50;;;;;;;5.93;1.70;;;10.60;99.90;;;;;;7280118;19;20197;-78
2024/04/02 01:46:16;;;;;;;5.47;1.63;;;10.70;99.90;;;;;;7281964;19;20194;-78
2024/04/02 01:48:42;;;;;;;6.73;1.50;;;10.80;99.90;;;;;;7283204;19;20229;-79
2024/04/02 01:51:08;;;;;;;5.13;1.50;;;10.90;99.90;;;;;;7280613;19;20636;-79
2024/04/02 01:53:34;;;;;;;4.83;1.50;;;10.90;99.90;;;;;;7285683;19;20210;-79
2024/04/02 01:56:00;;;;;;;6.50;1.60;;;10.90;99.90;;;;;;7304655;19;20210;-78
2024/04/02 01:58:26;;;;;;;5.47;1.23;;;10.80;99.90;;;;;;7281284;19;20202;-78
2024/04/02 02:00:51;;;;;;;6.90;1.40;;;10.80;99.90;;;;;;7286038;19;20181;-79
2024/04/02 02:03:17;;;;;;;6.23;1.60;;;10.70;99.90;;;;;;7286941;19;20575;-79
2024/04/02 02:05:47;;;;;;;8.33;1.50;;;10.70;99.90;;;;;;7289079;19;20189;-78
2024/04/02 02:08:13;;;;;;;7.03;1.60;;;10.60;99.90;;;;;;7287537;19;20197;-78
2024/04/02 02:10:38;;;;;;;4.70;1.47;;;10.50;99.90;;;;;;7285682;19;20194;-78
2024/04/02 02:13:07;;;;;;;5.67;1.30;;;10.50;99.90;;;;;;7288498;19;20208;-78
2024/04/02 02:15:36;;;;;;;6.93;1.33;;;10.50;99.90;;;;;;7298892;19;20195;-78
2024/04/02 02:18:02;;;;;;;5.73;1.50;;;10.50;99.90;;;;;;7305988;19;20559;-78
2024/04/02 02:20:28;;;;;;;7.27;1.43;;;10.40;99.90;;;;;;7287566;19;20290;-78
2024/04/02 02:22:54;;;;;;;9.90;1.50;;;10.40;99.90;;;;;;7288077;19;20178;-78
2024/04/02 02:25:19;;;;;;;7.77;1.60;;;10.50;99.90;;;;;;7286661;19;20196;-78
2024/04/02 02:27:45;;;;;;;10.53;1.73;;;10.40;99.90;;;;;;7286785;19;20196;-78
2024/04/02 02:30:11;;;;;;;10.33;1.70;;;10.40;99.90;;;;;;7285990;19;20196;-78
2024/04/02 02:32:37;;;;;;;6.97;1.63;;;10.30;99.90;;;;;;7286700;19;20204;-78
2024/04/02 02:35:03;;;;;;;6.80;1.50;;;10.30;99.90;;;;;;7307525;19;20193;-78
2024/04/02 02:37:29;;;;;;;6.70;1.67;;;10.30;99.90;;;;;;7302694;19;20189;-79
2024/04/02 02:39:56;;;;;;;10.87;1.70;;;10.30;99.90;;;;;;7285952;19;21039;-78
2024/04/02 02:42:23;;;;;;;8.83;1.60;;;10.20;99.90;;;;;;7286380;19;20188;-78
2024/04/02 02:44:50;;;;;;;9.67;1.87;;;10.20;99.90;;;;;;7286505;19;20752;-78
2024/04/02 02:47:16;;;;;;;10.87;1.70;;;10.20;99.90;;;;;;7286347;19;20520;-79
2024/04/02 02:49:41;;;;;;;5.93;1.57;;;10.10;99.90;;;;;;7285742;19;20204;-79
2024/04/02 02:52:07;;;;;;;7.13;1.60;;;10.10;99.90;;;;;;7286384;19;20633;-79
2024/04/02 02:54:33;;;;;;;5.03;1.50;;;10.20;99.90;;;;;;7302746;19;20198;-78
2024/04/02 02:56:59;;;;;;;10.47;1.70;;;10.20;99.90;;;;;;7297190;19;20184;-79
2024/04/02 02:59:24;;;;;;;7.80;1.73;;;10.20;99.90;;;;;;7286698;19;20607;-78
2024/04/02 03:01:50;;;;;;;8.43;1.63;;;10.10;99.90;;;;;;7286337;19;20265;-79
2024/04/02 03:04:16;;;;;;;8.77;1.77;;;10.10;99.90;;;;;;7284603;19;20662;-79
2024/04/02 03:06:43;;;;;;;7.43;1.43;;;10.10;99.90;;;;;;7284772;19;20574;-79
2024/04/02 03:09:10;;;;;;;8.67;1.67;;;10.10;99.90;;;;;;7285441;19;20581;-78
2024/04/02 03:11:36;;;;;;;8.57;1.80;;;10.00;99.90;;;;;;7283388;19;20203;-78
2024/04/02 03:14:02;;;;;;;8.13;1.57;;;10.00;99.90;;;;;;7306069;19;20252;-78
2024/04/02 03:16:28;;;;;;;9.07;1.80;;;10.00;99.90;;;;;;7283910;19;20181;-79
2024/04/02 03:18:54;;;;;;;12.13;1.70;;;10.10;99.90;;;;;;7286334;19;21110;-78
2024/04/02 03:21:20;;;;;;;7.93;1.57;;;10.10;99.90;;;;;;7286365;19;20217;-78
2024/04/02 03:23:47;;;;;;;10.20;1.67;;;10.10;99.90;;;;;;7282142;19;20181;-77
2024/04/02 03:26:13;;;;;;;14.23;2.03;;;10.10;99.90;;;;;;7285381;19;20185;-77
2024/04/02 03:28:39;;;;;;;6.97;1.50;;;10.10;99.90;;;;;;7287028;19;20181;-78
2024/04/02 03:31:05;;;;;;;9.83;1.50;;;10.10;99.90;;;;;;7285249;19;20200;-78
2024/04/02 03:33:31;;;;;;;11.43;1.80;;;10.10;99.90;;;;;;7305754;19;20180;-79
2024/04/02 03:36:05;;;;;;;10.13;1.67;;;10.10;99.90;;;;;;7284325;19;20187;-78
2024/04/02 03:38:32;;;;;;;13.00;1.63;;;10.10;99.90;;;;;;7286403;19;20663;-78
2024/04/02 03:41:12;;;;;;;9.53;1.80;;;10.10;99.90;;;;;;7286089;19;20184;-78
2024/04/02 03:43:40;;;;;;;10.47;1.70;;;10.10;99.90;;;;;;7181585;19;2005063;-78
2024/04/02 03:46:07;;;;;;;11.20;2.10;;;10.00;99.90;;;;;;7285025;19;20842;-78
2024/04/02 03:48:33;;;;;;;11.47;2.03;;;10.10;99.90;;;;;;7306439;19;21029;-78
2024/04/02 03:50:59;;;;;;;11.90;2.53;;;10.00;99.90;;;;;;7285878;19;20493;-78
2024/04/02 03:53:25;;;;;;;14.60;2.27;;;10.10;99.90;;;;;;7283406;19;21076;-79
2024/04/02 03:55:57;;;;;;;12.97;2.10;;;10.10;99.90;;;;;;7284650;19;20271;-79
2024/04/02 03:58:24;;;;;;;13.80;2.17;;;10.10;99.90;;;;;;7285477;19;20400;-78
2024/04/02 04:00:49;;;;;;;11.17;1.70;;;10.10;99.90;;;;;;7285258;19;20192;-78
2024/04/02 04:03:16;;;;;;;11.80;1.80;;;10.10;99.90;;;;;;7283065;19;20255;-78
2024/04/02 04:05:43;;;;;;;14.80;2.00;;;10.10;99.90;;;;;;7287140;19;20195;-78
2024/04/02 04:08:09;;;;;;;17.40;2.43;;;10.10;99.90;;;;;;7284213;19;20290;-77
2024/04/02 04:10:36;;;;;;;14.53;1.80;;;10.00;99.90;;;;;;7282021;19;20192;-79
2024/04/02 04:13:01;;;;;;;14.97;2.20;;;10.00;99.90;;;;;;7307423;19;20187;-79
2024/04/02 04:15:27;;;;;;;15.17;2.27;;;10.00;99.90;;;;;;7284277;19;20211;-78
2024/04/02 04:17:53;;;;;;;14.63;2.07;;;10.00;99.90;;;;;;7285821;19;20200;-78
2024/04/02 04:20:19;;;;;;;14.77;2.23;;;9.90;99.90;;;;;;7283225;19;20195;-78
2024/04/02 04:22:45;;;;;;;19.40;2.83;;;9.90;99.90;;;;;;7283857;19;20534;-78
2024/04/02 04:25:12;;;;;;;14.67;2.20;;;10.00;99.90;;;;;;7287386;19;20196;-78
2024/04/02 04:27:38;;;;;;;13.90;2.40;;;10.00;99.90;;;;;;7283747;19;20188;-78
2024/04/02 04:30:06;;;;;;;12.10;2.07;;;10.00;99.90;;;;;;7295074;19;20185;-77
2024/04/02 04:32:36;;;;;;;13.07;2.30;;;9.90;99.90;;;;;;7305571;19;20189;-79
2024/04/02 04:35:01;;;;;;;15.97;2.30;;;10.00;99.90;;;;;;7283721;19;20225;-79
2024/04/02 04:37:30;;;;;;;15.03;2.57;;;10.00;99.90;;;;;;7284808;19;20195;-78
2024/04/02 04:39:56;;;;;;;18.73;2.37;;;10.00;99.90;;;;;;7280490;19;20280;-78
2024/04/02 04:42:23;;;;;;;15.07;2.00;;;10.10;99.90;;;;;;7282240;19;20205;-78
2024/04/02 04:44:49;;;;;;;12.07;2.10;;;10.10;99.90;;;;;;7283027;19;20199;-78
2024/04/02 04:47:15;;;;;;;14.17;2.23;;;10.20;99.90;;;;;;7283329;19;20201;-78
2024/04/02 04:49:41;;;;;;;16.77;2.40;;;10.30;99.90;;;;;;7280571;19;20706;-78
2024/04/02 04:52:08;;;;;;;13.93;2.20;;;10.30;99.90;;;;;;7283997;19;20216;-78
2024/04/02 04:54:34;;;;;;;16.33;2.53;;;10.20;99.90;;;;;;7292972;19;20572;-78
2024/04/02 04:57:00;;;;;;;17.33;2.17;;;10.10;99.90;;;;;;7302465;19;20766;-78
2024/04/02 04:59:26;;;;;;;21.10;2.10;;;10.20;99.90;;;;;;7281507;19;20199;-78
2024/04/02 05:01:52;;;;;;;16.60;2.10;;;10.20;99.90;;;;;;7281093;19;20856;-78
2024/04/02 05:04:18;;;;;;;16.70;2.80;;;10.20;99.90;;;;;;7280923;19;20195;-78
2024/04/02 05:06:44;;;;;;;15.83;2.37;;;10.20;99.90;;;;;;7281020;19;20192;-78
2024/04/02 05:09:13;;;;;;;12.87;2.47;;;10.20;99.90;;;;;;7280155;19;20253;-78
2024/04/02 05:11:39;;;;;;;13.10;2.90;;;10.30;99.90;;;;;;7283137;19;20686;-78
2024/04/02 05:14:05;;;;;;;18.97;2.50;;;10.30;99.90;;;;;;7292408;19;20198;-78
2024/04/02 05:16:33;;;;;;;16.37;2.37;;;10.40;99.90;;;;;;7299823;19;20188;-79
2024/04/02 05:18:59;;;;;;;19.50;2.20;;;10.40;99.90;;;;;;7283432;19;20212;-77
2024/04/02 05:21:25;;;;;;;14.13;2.40;;;10.40;99.90;;;;;;7282581;19;20986;-78
2024/04/02 05:23:50;;;;;;;16.17;2.63;;;10.30;99.90;;;;;;7282101;19;20526;-78
2024/04/02 05:26:17;;;;;;;16.37;2.50;;;10.30;99.90;;;;;;7280232;19;20181;-78
2024/04/02 05:28:43;;;;;;;16.77;2.67;;;10.40;99.90;;;;;;7281583;19;20185;-78
2024/04/02 05:31:09;;;;;;;11.23;1.90;;;10.40;99.90;;;;;;7280043;19;20193;-77
2024/04/02 05:33:35;;;;;;;18.33;3.03;;;10.40;99.90;;;;;;7285204;19;20205;-77
2024/04/02 05:36:01;;;;;;;15.37;2.20;;;10.50;99.90;;;;;;7309764;19;20680;-77
2024/04/02 05:38:27;;;;;;;18.60;2.17;;;10.60;99.90;;;;;;7289317;19;20196;-77
2024/04/02 05:40:53;;;;;;;12.83;2.23;;;10.50;99.90;;;;;;7287122;19;20192;-78
2024/04/02 05:43:19;;;;;;;15.80;2.23;;;10.50;99.90;;;;;;7286178;19;20227;-77
2024/04/02 05:45:45;;;;;;;13.63;2.03;;;10.50;99.90;;;;;;7286452;19;20185;-77
2024/04/02 05:48:11;;;;;;;20.57;2.27;;;10.60;99.90;;;;;;7287653;19;20208;-77
2024/04/02 05:50:36;;;;;;;14.13;2.33;;;10.70;99.90;;;;;;7288151;19;20644;-77
2024/04/02 05:53:02;;;;;;;14.53;2.47;;;10.60;99.90;;;;;;7309492;19;20246;-77
2024/04/02 05:55:28;;;;;;;18.33;2.60;;;10.70;99.90;;;;;;7286965;19;20188;-77
2024/04/02 05:57:57;;;;;;;14.83;2.50;;;10.70;99.90;;;;;;7288717;19;20260;-77
2024/04/02 06:00:23;;;;;;;15.60;2.13;;;10.70;99.90;;;;;;7288335;19;21835;-77
2024/04/02 06:02:49;;;;;;;13.33;2.40;;;10.90;99.90;;;;;;7286241;19;20189;-77
2024/04/02 06:05:16;;;;;;;12.73;2.17;;;10.80;99.90;;;;;;7286593;19;20199;-77
2024/04/02 06:07:41;;;;;;;12.87;2.30;;;10.80;99.90;;;;;;7288303;19;20187;-78
2024/04/02 06:10:07;;;;;;;15.73;2.40;;;10.90;99.90;;;;;;7287901;19;20645;-77
2024/04/02 06:12:33;;;;;;;13.67;2.27;;;10.90;99.90;;;;;;7307493;19;20192;-78
2024/04/02 06:14:59;;;;;;;15.97;2.40;;;10.90;99.90;;;;;;7286824;19;20197;-77
2024/04/02 06:17:24;;;;;;;16.30;2.30;;;11.00;99.90;;;;;;7287394;19;20190;-78
2024/04/02 06:19:50;;;;;;;15.17;2.10;;;11.10;99.90;;;;;;7287138;19;20185;-78
2024/04/02 06:22:16;;;;;;;13.83;2.30;;;11.10;99.90;;;;;;7285496;19;20196;-78
2024/04/02 06:24:42;;;;;;;10.47;1.83;;;11.10;99.90;;;;;;7287146;19;20248;-78
2024/04/02 06:27:07;;;;;;;15.37;2.80;;;11.00;99.90;;;;;;7288287;19;20641;-78
2024/04/02 06:29:34;;;;;;;9.97;2.50;;;11.10;99.90;;;;;;7309188;19;20194;-78
2024/04/02 06:32:00;;;;;;;12.80;2.00;;;11.30;99.90;;;;;;7286756;19;20625;-78
2024/04/02 06:34:25;;;;;;;13.00;2.20;;;11.40;99.90;;;;;;7286748;19;20200;-78
2024/04/02 06:36:51;;;;;;;13.80;2.37;;;11.50;99.90;;;;;;7285965;19;20199;-78
2024/04/02 06:39:17;;;;;;;12.60;2.40;;;11.60;99.90;;;;;;7287440;19;20202;-78
2024/04/02 06:41:42;;;;;;;16.93;2.80;;;11.70;99.90;;;;;;7286186;19;20194;-78
2024/04/02 06:44:08;;;;;;;13.87;2.00;;;11.80;99.90;;;;;;7286322;19;20202;-78
2024/04/02 06:46:34;;;;;;;13.03;1.90;;;11.80;99.90;;;;;;7303571;19;20186;-78
2024/04/02 06:49:00;;;;;;;16.73;2.50;;;11.80;99.90;;;;;;7299607;19;20279;-78
2024/04/02 06:51:25;;;;;;;16.77;2.53;;;12.00;99.90;;;;;;7285006;19;20190;-78
2024/04/02 06:53:53;;;;;;;14.57;2.40;;;12.00;99.90;;;;;;7288022;19;20285;-78
2024/04/02 06:56:18;;;;;;;12.07;1.97;;;11.90;99.90;;;;;;7287430;19;20227;-79
2024/04/02 06:58:44;;;;;;;11.23;1.80;;;12.10;99.90;;;;;;7284413;19;20195;-78
2024/04/02 07:01:11;;;;;;;12.57;2.17;;;12.20;99.90;;;;;;7287039;19;20190;-78
2024/04/02 07:03:37;;;;;;;14.73;2.40;;;12.30;99.90;;;;;;7286040;19;20197;-78
2024/04/02 07:06:03;;;;;;;16.10;2.50;;;12.30;99.90;;;;;;7308441;19;20281;-78
2024/04/02 07:08:29;;;;;;;10.37;2.00;;;12.30;99.90;;;;;;7285263;19;20250;-78
2024/04/02 07:11:04;;;;;;;21.23;2.90;;;12.30;99.90;;;;;;7286944;19;20192;-78
2024/04/02 07:13:31;;;;;;;15.43;2.87;;;12.50;99.90;;;;;;7286986;19;20253;-78
2024/04/02 07:15:57;;;;;;;12.13;2.63;;;13.30;99.90;;;;;;7284925;19;20200;-78
2024/04/02 07:18:23;;;;;;;16.20;2.20;;;13.60;99.90;;;;;;7285904;19;20201;-78
2024/04/02 07:21:01;;;;;;;11.97;2.20;;;13.70;99.90;;;;;;7286596;19;20666;-78
2024/04/02 07:23:27;;;;;;;13.37;2.30;;;13.60;99.90;;;;;;7285795;19;20183;-79
2024/04/02 07:25:53;;;;;;;12.80;2.20;;;13.50;99.90;;;;;;7285429;19;20218;-78
2024/04/02 07:28:23;;;;;;;17.43;2.57;;;13.30;99.90;;;;;;7284621;19;20189;-78
2024/04/02 07:30:49;;;;;;;10.23;2.10;;;13.30;99.90;;;;;;7284330;19;20188;-78
2024/04/02 07:33:16;;;;;;;13.90;2.13;;;13.40;99.90;;;;;;7285841;19;20521;-78
2024/04/02 07:35:42;;;;;;;14.87;2.67;;;13.30;99.90;;;;;;7284179;19;20194;-78
2024/04/02 07:38:12;;;;;;;13.03;1.93;;;13.20;99.90;;;;;;7282700;19;20208;-78
2024/04/02 07:40:38;;;;;;;12.77;2.00;;;12.80;99.90;;;;;;7283013;19;20628;-78
2024/04/02 07:43:08;;;;;;;12.87;2.10;;;12.70;99.90;;;;;;7299042;19;20190;-78
2024/04/02 07:45:34;;;;;;;15.57;2.30;;;12.40;99.90;;;;;;7304921;19;20601;-77
2024/04/02 07:48:00;;;;;;;16.13;3.13;;;12.20;99.90;;;;;;7284834;19;20197;-78
2024/04/02 07:50:30;;;;;;;15.67;2.77;;;12.10;99.90;;;;;;7284562;19;20588;-78
2024/04/02 07:52:56;;;;;;;17.83;2.60;;;12.20;99.90;;;;;;7282998;19;20193;-78
2024/04/02 07:55:22;;;;;;;15.27;2.00;;;12.30;99.90;;;;;;7282327;19;20222;-78
2024/04/02 07:57:48;;;;;;;13.20;2.30;;;12.30;99.90;;;;;;7281848;19;20205;-78
2024/04/02 08:00:14;;;;;;;10.57;2.00;;;12.40;99.90;;;;;;7284092;19;20185;-78
2024/04/02 08:02:39;;;;;;;16.80;2.47;;;12.40;99.90;;;;;;7284402;19;20958;-78
2024/04/02 08:05:05;;;;;;;13.33;2.27;;;12.40;99.90;;;;;;7287604;19;20190;-78
2024/04/02 08:07:32;;;;;;;14.83;2.27;;;12.50;99.90;;;;;;7303989;19;20181;-78
2024/04/02 08:09:58;;;;;;;13.03;2.10;;;12.60;99.90;;;;;;7283266;19;20183;-78
2024/04/02 08:12:23;;;;;;;14.23;2.47;;;12.60;99.90;;;;;;7282404;19;20199;-77
2024/04/02 08:14:51;;;;;;;16.40;2.93;;;12.60;99.90;;;;;;7282726;19;20554;-78
2024/04/02 08:17:17;;;;;;;12.80;2.50;;;12.40;99.90;;;;;;7283378;19;20206;-78
2024/04/02 08:19:43;;;;;;;14.20;2.13;;;12.50;99.90;;;;;;7283629;19;20191;-78
2024/04/02 08:22:09;;;;;;;12.60;2.40;;;12.50;99.90;;;;;;7281777;19;20205;-77
2024/04/02 08:24:35;;;;;;;13.00;2.40;;;12.60;99.90;;;;;;7293643;19;20194;-78
2024/04/02 08:27:02;;;;;;;18.77;2.33;;;12.50;99.90;;;;;;7305089;19;20191;-78
2024/04/02 08:29:28;;;;;;;15.47;2.40;;;12.40;99.90;;;;;;7283379;19;20206;-78
2024/04/02 08:31:54;;;;;;;12.40;2.23;;;12.30;99.90;;;;;;7282284;19;20206;-78
2024/04/02 08:34:19;;;;;;;17.03;2.20;;;12.10;99.90;;;;;;7282755;19;20193;-78
2024/04/02 08:36:45;;;;;;;15.03;1.97;;;12.30;99.90;;;;;;7284762;19;21081;-78
2024/04/02 08:39:12;;;;;;;17.50;2.37;;;12.30;99.90;;;;;;7283796;19;20214;-78
2024/04/02 08:41:38;;;;;;;18.17;2.67;;;12.40;99.90;;;;;;7281974;19;20187;-79
2024/04/02 08:44:04;;;;;;;11.83;1.80;;;12.40;99.90;;;;;;7300224;19;20189;-78
2024/04/02 08:46:32;;;;;;;13.10;2.30;;;12.50;99.90;;;;;;7295778;19;20255;-78
2024/04/02 08:48:58;;;;;;;14.10;2.17;;;12.60;99.90;;;;;;7283049;19;20200;-78
2024/04/02 08:51:27;;;;;;;12.73;1.93;;;12.60;99.90;;;;;;7280996;19;21564;-78
2024/04/02 08:53:53;;;;;;;13.93;2.50;;;12.70;99.90;;;;;;7282656;19;20189;-78
2024/04/02 08:56:19;;;;;;;15.43;2.40;;;12.70;99.90;;;;;;7283933;19;20196;-78
2024/04/02 08:58:46;;;;;;;13.33;2.00;;;12.40;99.90;;;;;;7282395;19;20191;-78
2024/04/02 09:01:13;;;;;;;16.53;2.47;;;12.10;99.90;;;;;;7282082;19;20198;-78
2024/04/02 09:03:39;;;;;;;16.93;2.40;;;11.90;99.90;;;;;;7282847;19;20189;-78
2024/04/02 09:06:06;;;;;;;18.17;2.60;;;11.80;99.90;;;;;;7289444;19;20776;-78
2024/04/02 09:08:45;;;;;;;13.53;2.33;;;11.80;99.90;;;;;;7303298;19;20276;-78
2024/04/02 09:11:12;;;;;;;11.50;2.20;;;11.50;99.90;;;;;;7181425;19;2004502;-78
2024/04/02 09:13:39;;;;;;;17.73;2.23;;;11.60;99.90;;;;;;7282389;19;20200;-78
2024/04/02 09:16:06;;;;;;;19.37;2.37;;;11.60;99.90;;;;;;7291916;19;20658;-78
2024/04/02 09:18:35;;;;;;;12.40;2.40;;;11.70;99.90;;;;;;7301307;19;20555;-77
2024/04/02 09:21:02;;;;;;;16.53;2.37;;;11.70;99.90;;;;;;7283029;19;20192;-78
2024/04/02 09:23:28;;;;;;;15.40;2.23;;;11.60;99.90;;;;;;7281879;19;20671;-78
2024/04/02 09:25:55;;;;;;;20.17;3.10;;;11.60;99.90;;;;;;7282316;19;20210;-78
2024/04/02 09:28:21;;;;;;;14.13;2.60;;;11.80;99.90;;;;;;7280790;19;20200;-78
2024/04/02 09:30:47;;;;;;;14.03;2.60;;;11.70;99.90;;;;;;7280985;19;20185;-78
2024/04/02 09:33:16;;;;;;;14.00;2.20;;;11.60;99.90;;;;;;7281671;19;20188;-78
2024/04/02 09:36:13;;;;;;;17.47;2.40;;;11.40;99.90;;;;;;7281396;19;20185;-78
2024/04/02 09:38:40;;;;;;;17.07;2.73;;;11.50;99.90;;;;;;7257464;19;20534;-78
2024/04/02 09:41:07;;;;;;;16.77;2.63;;;11.50;99.90;;;;;;7280463;19;20200;-78
2024/04/02 09:43:33;;;;;;;18.73;2.67;;;11.60;99.90;;;;;;7303117;19;20193;-78
2024/04/02 09:46:01;;;;;;;17.43;3.13;;;11.80;99.90;;;;;;7281271;19;20224;-78
2024/04/02 09:48:30;;;;;;;20.23;3.30;;;12.00;99.90;;;;;;7281551;19;20201;-78
2024/04/02 09:50:57;;;;;;;17.20;2.70;;;12.20;99.90;;;;;;7281287;19;20249;-78
2024/04/02 09:53:24;;;;;;;13.43;2.90;;;12.40;99.90;;;;;;7281656;19;20199;-78
2024/04/02 09:55:55;;;;;;;19.20;2.87;;;12.60;99.90;;;;;;7280192;19;20661;-78
2024/04/02 09:58:21;;;;;;;17.40;3.00;;;12.50;99.90;;;;;;7279573;19;20207;-78
2024/04/02 10:00:53;;;;;;;17.37;2.47;;;12.60;99.90;;;;;;7281625;19;20188;-78
2024/04/02 10:03:22;;;;;;;20.27;2.70;;;12.40;99.90;;;;;;7280909;19;20734;-78
2024/04/02 10:05:50;;;;;;;14.63;2.63;;;12.40;99.90;;;;;;7279113;19;20206;-77
2024/04/02 10:08:16;;;;;;;18.37;2.63;;;12.40;99.90;;;;;;7280922;19;20580;-78
2024/04/02 10:10:42;;;;;;;17.43;2.67;;;12.60;99.90;;;;;;7280349;19;20262;-76
2024/04/02 10:13:08;;;;;;;15.83;2.30;;;12.90;99.90;;;;;;7281007;19;20542;-77
2024/04/02 10:15:34;;;;;;;14.87;2.30;;;13.20;99.90;;;;;;7302041;19;20274;-77
2024/04/02 10:18:01;;;;;;;17.67;2.50;;;13.20;99.90;;;;;;7279957;19;20204;-77
2024/04/02 10:20:29;;;;;;;15.00;2.17;;;13.40;99.90;;;;;;7283520;19;20232;-77
2024/04/02 10:22:56;;;;;;;12.67;2.17;;;13.30;99.90;;;;;;7286150;19;20191;-76
2024/04/02 10:25:24;;;;;;;14.10;2.23;;;13.30;99.90;;;;;;7284035;19;20212;-77
2024/04/02 10:27:53;;;;;;;17.37;2.30;;;13.40;99.90;;;;;;7285620;19;20204;-77
2024/04/02 10:30:25;;;;;;;16.77;2.33;;;13.20;99.90;;;;;;7284449;19;20199;-77
2024/04/02 10:32:52;;;;;;;18.07;2.63;;;13.20;99.90;;;;;;7284323;19;20253;-78
2024/04/02 10:35:25;;;;;;;15.17;2.53;;;13.10;99.90;;;;;;7284485;19;20283;-77
2024/04/02 10:37:53;;;;;;;15.77;2.50;;;13.20;99.90;;;;;;7285933;19;20198;-76
2024/04/02 10:40:19;;;;;;;17.17;2.27;;;13.30;99.90;;;;;;7286964;19;20224;-77
2024/04/02 10:42:49;;;;;;;15.57;2.30;;;13.20;99.90;;;;;;7284110;19;20891;-77
2024/04/02 10:45:16;;;;;;;14.80;1.90;;;13.30;99.90;;;;;;7285311;19;20548;-77
2024/04/02 10:47:50;;;;;;;14.03;2.00;;;13.50;99.90;;;;;;7284632;19;20258;-78
2024/04/02 10:50:18;;;;;;;14.77;2.40;;;13.60;99.90;;;;;;7281157;19;20565;-78
2024/04/02 10:52:44;;;;;;;14.17;2.23;;;13.40;99.90;;;;;;7278765;19;20263;-77
2024/04/02 10:55:10;;;;;;;11.70;2.13;;;13.40;99.90;;;;;;7283975;19;20705;-77
2024/04/02 10:57:38;;;;;;;15.10;2.63;;;13.80;99.90;;;;;;7286681;19;20297;-77
2024/04/02 11:00:09;;;;;;;17.77;2.40;;;14.10;99.90;;;;;;7304299;19;20199;-77
2024/04/02 11:02:36;;;;;;;13.27;2.23;;;14.30;99.90;;;;;;7276521;19;20190;-77
2024/04/02 11:05:04;;;;;;;14.87;2.40;;;14.60;99.90;;;;;;7306822;19;20196;-76
2024/04/02 11:07:30;;;;;;;18.10;2.80;;;14.60;99.90;;;;;;7283234;19;20186;-77
2024/04/02 11:09:56;;;;;;;14.50;2.30;;;14.70;99.90;;;;;;7283660;19;20188;-78
2024/04/02 11:12:23;;;;;;;11.57;2.00;;;14.80;99.90;;;;;;7282086;19;20200;-78
2024/04/02 11:14:49;;;;;;;11.13;2.20;;;14.80;99.90;;;;;;7285083;19;20192;-78
2024/04/02 11:17:15;;;;;;;13.43;2.27;;;14.60;99.90;;;;;;7284544;19;20200;-78
2024/04/02 11:19:41;;;;;;;13.40;2.33;;;14.50;99.90;;;;;;7283908;19;20199;-78
2024/04/02 11:25:06;;;;;;;14.50;2.13;;;14.40;99.90;;;;;;7285341;19;20185;-77
2024/04/02 11:27:32;;;;;;;15.60;2.27;;;14.30;99.90;;;;;;7287513;19;20185;-77
2024/04/02 11:30:01;;;;;;;17.73;2.40;;;14.30;99.90;;;;;;7284609;19;20205;-77
2024/04/02 11:32:27;;;;;;;11.10;2.00;;;14.30;99.90;;;;;;7282684;19;20221;-77
2024/04/02 11:35:00;;;;;;;13.00;2.50;;;14.20;99.90;;;;;;7285532;19;20189;-78
2024/04/02 11:37:31;;;;;;;12.27;2.30;;;14.00;99.90;;;;;;7285041;19;20250;-77
2024/04/02 11:39:58;;;;;;;10.37;1.90;;;14.00;99.90;;;;;;7285592;19;20188;-77
2024/04/02 11:42:25;;;;;;;13.67;2.10;;;14.10;99.90;;;;;;7284415;19;20181;-77
2024/04/02 11:44:52;;;;;;;14.93;2.10;;;14.00;99.90;;;;;;7285205;19;20206;-77
2024/04/02 11:47:18;;;;;;;12.57;2.07;;;13.90;99.90;;;;;;7284741;19;20209;-78
2024/04/02 11:49:44;;;;;;;13.60;2.57;;;13.90;99.90;;;;;;7283984;19;20660;-78
2024/04/02 11:52:11;;;;;;;13.13;2.43;;;13.70;99.90;;;;;;7285999;19;20190;-78
2024/04/02 11:54:37;;;;;;;15.73;2.57;;;13.80;99.90;;;;;;7284856;19;20190;-77
2024/04/02 12:02:46;;;;;;;15.53;2.50;;;14.80;99.90;;;;;;7263830;19;20193;-78
2024/04/02 12:05:12;;;;;;;14.30;1.90;;;14.80;99.90;;;;;;7283736;19;20256;-78
2024/04/02 12:07:39;;;;;;;16.93;2.30;;;14.80;99.90;;;;;;7283442;19;20196;-78
2024/04/02 12:10:09;;;;;;;16.20;2.00;;;14.80;99.90;;;;;;7306065;19;20976;-78
2024/04/02 12:12:35;;;;;;;14.37;2.10;;;14.80;99.90;;;;;;7280666;19;20293;-78
2024/04/02 12:15:06;;;;;;;12.67;2.17;;;15.00;99.90;;;;;;7299396;19;20257;-78
2024/04/02 12:17:32;;;;;;;11.93;2.30;;;15.30;99.90;;;;;;7281314;19;20221;-78
2024/04/02 12:19:58;;;;;;;11.50;1.87;;;15.50;99.90;;;;;;7284530;19;20204;-78
2024/04/02 12:22:26;;;;;;;15.13;2.30;;;15.30;99.90;;;;;;7284225;19;20192;-77
2024/04/02 12:24:52;;;;;;;17.07;2.90;;;15.20;99.90;;;;;;7282011;19;20192;-78
2024/04/02 12:27:21;;;;;;;15.10;2.40;;;15.20;99.90;;;;;;7284233;19;20195;-78
2024/04/02 12:29:59;;;;;;;16.50;2.30;;;15.20;99.90;;;;;;7283032;19;20185;-78
2024/04/02 12:32:28;;;;;;;14.77;2.50;;;15.20;99.90;;;;;;7283109;19;20210;-77
2024/04/02 12:34:54;;;;;;;12.07;2.47;;;15.00;99.90;;;;;;7281821;19;20196;-78
2024/04/02 12:37:20;;;;;;;12.07;2.33;;;14.70;99.90;;;;;;7284061;19;20194;-78
2024/04/02 12:39:47;;;;;;;15.23;2.57;;;14.70;99.90;;;;;;7284458;19;20212;-78
2024/04/02 12:42:15;;;;;;;16.20;2.77;;;14.70;99.90;;;;;;7282527;19;20180;-78
2024/04/02 12:44:41;;;;;;;11.47;1.90;;;14.70;99.90;;;;;;7281275;19;20488;-78
2024/04/02 12:47:07;;;;;;;17.17;2.67;;;14.50;99.90;;;;;;7286649;19;20176;-77